Time;durP1;ratioP1;P1;durP2;ratioP2;P2;SDS_P1;SDS_P2;PMS_P1;PMS_P2;Temp;Humidity;BMP_temperature;BMP_pressure;BME280_temperature;BME280_humidity;BME280_pressure;Samples;Min_cycle;Max_cycle;Signal;HPM_P1;HPM_P2
2023/10/03 00:04:10;;;;;;;11.70;7.90;;;;;;;13.43;82.41;99255.56;225292;1282;138782;-71
2023/10/03 00:09:12;;;;;;;15.20;8.50;;;;;;;13.41;82.29;99251.30;225402;1282;22562;-71
2023/10/03 00:14:15;;;;;;;13.70;8.00;;;;;;;13.41;82.58;99247.62;225470;1280;138421;-71
2023/10/03 00:19:17;;;;;;;14.30;8.30;;;;;;;13.43;82.56;99252.54;225436;1282;138701;-72
2023/10/03 00:24:19;;;;;;;13.20;7.90;;;;;;;13.42;82.26;99246.11;225444;1280;138565;-71
2023/10/03 00:29:23;;;;;;;10.80;7.20;;;;;;;13.40;82.47;99241.70;225521;1280;138729;-71
2023/10/03 00:34:26;;;;;;;14.10;8.20;;;;;;;13.40;82.67;99241.53;225428;1279;138532;-71
2023/10/03 00:39:28;;;;;;;15.30;8.10;;;;;;;13.41;82.68;99239.63;225592;1280;22642;-72
2023/10/03 00:44:30;;;;;;;13.50;8.60;;;;;;;13.40;82.76;99236.02;225523;1277;138907;-71
2023/10/03 00:49:38;;;;;;;13.40;8.60;;;;;;;13.38;82.59;99237.48;225500;1282;138557;-71
2023/10/03 00:54:41;;;;;;;13.30;8.40;;;;;;;13.36;82.49;99232.11;225563;1282;138626;-71
2023/10/03 00:59:44;;;;;;;12.70;8.30;;;;;;;13.32;82.56;99228.27;225438;1282;138867;-71
2023/10/03 01:04:46;;;;;;;14.10;8.20;;;;;;;13.27;82.58;99225.98;225590;1279;139219;-71
2023/10/03 01:09:49;;;;;;;13.50;8.30;;;;;;;13.22;82.70;99222.92;225459;1282;22543;-71
2023/10/03 01:14:51;;;;;;;12.20;7.50;;;;;;;13.18;82.68;99223.27;225370;1277;138246;-71
2023/10/03 01:19:53;;;;;;;12.70;7.20;;;;;;;13.14;82.93;99217.75;225503;1279;138519;-71
2023/10/03 01:24:55;;;;;;;11.90;7.60;;;;;;;13.11;82.77;99209.55;225503;1281;138643;-71
2023/10/03 01:29:57;;;;;;;11.10;7.40;;;;;;;13.08;82.99;99200.98;225286;1282;138682;-72
2023/10/03 01:35:08;;;;;;;11.90;7.40;;;;;;;13.05;83.00;99197.60;225301;1279;138587;-72
2023/10/03 01:40:13;;;;;;;10.90;7.20;;;;;;;13.04;83.20;99199.06;225403;1280;193671;-71
2023/10/03 01:45:24;;;;;;;11.30;7.50;;;;;;;13.02;83.12;99196.60;225544;1277;24362;-71
2023/10/03 01:50:29;;;;;;;11.50;7.50;;;;;;;12.98;83.07;99193.55;225404;1282;138480;-72
2023/10/03 01:55:32;;;;;;;11.90;6.90;;;;;;;12.95;83.16;99190.86;225505;1278;138434;-72
2023/10/03 02:00:36;;;;;;;14.30;6.90;;;;;;;12.91;83.23;99190.91;225324;1282;138638;-72
2023/10/03 02:05:42;;;;;;;12.80;7.40;;;;;;;12.90;83.27;99182.77;225379;1277;138562;-71
2023/10/03 02:10:51;;;;;;;12.90;7.30;;;;;;;12.88;83.25;99184.30;225366;1277;138810;-72
2023/10/03 02:15:54;;;;;;;12.50;7.10;;;;;;;12.85;83.34;99176.52;225621;1277;22616;-72
2023/10/03 02:21:01;;;;;;;11.30;7.00;;;;;;;12.82;83.37;99169.34;225614;1278;138262;-71
2023/10/03 02:26:10;;;;;;;11.70;6.60;;;;;;;12.78;83.35;99164.66;225662;1280;138639;-71
2023/10/03 02:31:15;;;;;;;12.30;7.30;;;;;;;12.74;83.45;99156.93;225658;1279;139460;-71
2023/10/03 02:36:17;;;;;;;10.60;6.70;;;;;;;12.70;83.49;99152.90;225569;1280;138624;-72
2023/10/03 02:41:19;;;;;;;12.00;7.10;;;;;;;12.68;83.63;99156.64;225499;1281;138627;-71
2023/10/03 02:46:21;;;;;;;14.50;7.30;;;;;;;12.65;83.70;99156.70;225447;1281;138542;-72
2023/10/03 02:51:25;;;;;;;10.80;7.20;;;;;;;12.64;83.90;99153.83;225736;1277;22539;-71
2023/10/03 02:56:27;;;;;;;11.40;7.90;;;;;;;12.63;83.83;99142.48;225493;1276;138335;-72
2023/10/03 03:01:31;;;;;;;12.90;7.20;;;;;;;12.61;83.95;99137.49;225655;1281;138852;-72
2023/10/03 03:06:35;;;;;;;14.10;7.90;;;;;;;12.60;84.14;99133.42;225722;1259;138541;-71
2023/10/03 03:11:48;;;;;;;13.20;8.00;;;;;;;12.59;83.98;99133.66;225662;1275;138698;-71
2023/10/03 03:16:50;;;;;;;10.80;7.80;;;;;;;12.57;84.07;99127.93;225461;1281;138626;-71
2023/10/03 03:21:57;;;;;;;12.60;8.00;;;;;;;12.55;84.26;99121.27;225537;1266;22565;-71
2023/10/03 03:26:59;;;;;;;14.10;7.90;;;;;;;12.54;84.21;99117.70;225727;1281;22562;-71
2023/10/03 03:32:03;;;;;;;14.10;8.20;;;;;;;12.52;84.15;99110.05;225671;1280;138819;-71
2023/10/03 03:37:21;;;;;;;13.00;7.70;;;;;;;12.50;84.31;99107.76;225602;1278;138798;-72
2023/10/03 03:42:25;;;;;;;9.10;7.00;;;;;;;12.50;84.55;99108.32;225680;1278;138539;-71
2023/10/03 03:47:27;;;;;;;13.70;7.50;;;;;;;12.52;84.63;99107.23;225589;1279;138517;-71
2023/10/03 03:52:32;;;;;;;11.30;7.00;;;;;;;12.56;84.77;99104.39;225471;1280;139124;-71
2023/10/03 03:57:34;;;;;;;14.00;7.60;;;;;;;12.58;84.65;99101.96;225670;1281;22606;-71
2023/10/03 04:02:36;;;;;;;11.70;7.20;;;;;;;12.58;84.52;99103.05;225648;1278;138222;-72
2023/10/03 04:07:38;;;;;;;14.00;8.00;;;;;;;12.55;84.46;99091.25;225483;1280;138890;-71
2023/10/03 04:12:43;;;;;;;13.00;7.30;;;;;;;12.53;84.62;99091.52;225515;1281;138606;-72
2023/10/03 04:17:46;;;;;;;10.90;6.90;;;;;;;12.50;84.53;99086.27;225605;1281;139883;-72
2023/10/03 04:22:52;;;;;;;12.40;7.30;;;;;;;12.47;84.57;99083.40;225715;1275;138837;-72
2023/10/03 04:27:56;;;;;;;14.80;7.50;;;;;;;12.43;84.64;99070.34;225835;1274;22554;-72
2023/10/03 04:32:58;;;;;;;13.00;7.70;;;;;;;12.41;84.73;99069.58;225592;1278;138979;-71
2023/10/03 04:38:00;;;;;;;12.80;7.70;;;;;;;12.39;84.72;99070.45;225499;1281;139680;-71
2023/10/03 04:43:11;;;;;;;13.60;7.30;;;;;;;12.38;84.82;99067.39;225601;1281;138756;-72
2023/10/03 04:48:13;;;;;;;11.50;7.40;;;;;;;12.39;85.03;99062.02;225651;1280;138878;-72
2023/10/03 04:53:15;;;;;;;10.90;7.40;;;;;;;12.39;84.92;99059.41;225631;1278;138740;-71
2023/10/03 04:58:18;;;;;;;12.60;8.00;;;;;;;12.41;85.21;99059.59;225644;1281;138883;-72
2023/10/03 05:03:21;;;;;;;14.30;7.50;;;;;;;12.45;85.34;99062.45;225754;1278;23430;-72
2023/10/03 05:08:24;;;;;;;11.80;8.00;;;;;;;12.51;85.25;99056.27;225647;1279;138421;-72
2023/10/03 05:13:28;;;;;;;12.70;8.10;;;;;;;12.57;85.37;99059.42;225696;1274;138512;-71
2023/10/03 05:18:30;;;;;;;12.20;8.00;;;;;;;12.62;85.29;99053.45;225553;1281;138611;-72
2023/10/03 05:23:32;;;;;;;13.70;8.20;;;;;;;12.69;85.34;99051.63;225619;1278;138601;-71
2023/10/03 05:28:38;;;;;;;12.60;7.30;;;;;;;12.79;85.35;99045.80;225675;1275;138543;-71
2023/10/03 05:33:42;;;;;;;12.10;7.70;;;;;;;12.92;85.51;99051.91;225726;1280;22640;-71
2023/10/03 05:38:45;;;;;;;12.00;8.90;;;;;;;13.09;85.62;99050.58;225588;1280;138244;-72
2023/10/03 05:43:48;;;;;;;15.20;7.90;;;;;;;13.26;85.36;99047.48;225448;1276;138663;-71
2023/10/03 05:48:51;;;;;;;16.20;7.90;;;;;;;13.42;85.36;99044.48;225474;1270;138937;-72
2023/10/03 05:53:54;;;;;;;15.20;7.70;;;;;;;13.60;85.16;99049.23;225154;1264;138567;-72
2023/10/03 05:58:56;;;;;;;15.50;8.90;;;;;;;13.78;84.87;99040.68;225167;1275;138748;-73
2023/10/03 06:03:58;;;;;;;18.20;10.80;;;;;;;13.95;84.65;99045.66;225200;1267;22536;-73
2023/10/03 06:09:05;;;;;;;15.80;7.80;;;;;;;14.14;84.66;99040.63;224838;1259;25252;-75
2023/10/03 06:14:08;;;;;;;16.50;8.60;;;;;;;14.30;84.18;99041.45;224668;1261;138325;-74
2023/10/03 06:19:23;;;;;;;;;;;;;;;;;;;;;
2023/10/03 06:24:27;;;;;;;15.00;8.00;;;;;;;14.62;84.02;99040.17;225292;1271;138591;-74
2023/10/03 06:30:09;;;;;;;;;;;;;;;;;;;;;
2023/10/03 06:35:39;;;;;;;14.50;7.70;;;;;;;15.04;83.57;99039.57;224903;1269;138624;-74
2023/10/03 06:41:07;;;;;;;14.30;7.90;;;;;;;15.28;83.57;99030.27;224712;1260;138025;-74
2023/10/03 06:46:34;;;;;;;10.40;6.90;;;;;;;15.53;83.04;99029.35;224736;1272;138594;-74
2023/10/03 06:51:51;;;;;;;15.10;7.20;;;;;;;15.75;82.51;99025.72;224749;1262;22533;-74
2023/10/03 06:57:26;;;;;;;15.20;7.50;;;;;;;16.00;82.14;99026.53;224809;1269;22529;-74
2023/10/03 07:03:10;;;;;;;13.60;9.80;;;;;;;16.25;81.77;99022.27;224994;1272;138299;-75
2023/10/03 07:08:56;;;;;;;11.00;7.00;;;;;;;16.50;81.17;99025.23;224212;1280;138509;-75
2023/10/03 07:14:35;;;;;;;12.70;7.40;;;;;;;16.73;80.69;99024.75;224000;1277;138509;-72
2023/10/03 07:20:12;;;;;;;10.60;6.30;;;;;;;17.01;80.09;99027.32;224132;1269;138697;-73
2023/10/03 07:25:51;;;;;;;10.70;6.10;;;;;;;17.25;79.44;99020.00;224443;1275;138577;-74
2023/10/03 07:30:56;;;;;;;10.00;6.20;;;;;;;17.44;79.09;99023.61;224954;1277;138631;-73
2023/10/03 07:36:25;;;;;;;11.50;6.50;;;;;;;17.62;78.80;99017.91;224695;1281;138587;-74
2023/10/03 07:42:29;;;;;;;;;;;;;;;;;;;;;
2023/10/03 07:47:36;;;;;;;11.70;7.00;;;;;;;18.02;78.30;99004.72;224828;1258;138589;-73
2023/10/03 07:52:48;;;;;;;12.20;6.30;;;;;;;18.21;77.71;98998.16;224753;1273;138577;-73
2023/10/03 07:58:55;;;;;;;10.70;6.00;;;;;;;18.39;77.07;98992.05;225097;1281;22907;-73
2023/10/03 08:03:58;;;;;;;9.10;5.70;;;;;;;18.57;76.81;98986.95;225281;1265;23481;-73
2023/10/03 08:09:46;;;;;;;9.10;6.20;;;;;;;18.75;76.29;98978.42;225274;1281;22542;-73
2023/10/03 08:21:20;;;;;;;12.20;6.70;;;;;;;19.13;75.29;98969.92;225072;1281;138782;-75
2023/10/03 08:26:34;;;;;;;9.50;5.40;;;;;;;19.32;74.71;98964.98;225168;1269;138496;-73
2023/10/03 08:31:49;;;;;;;11.20;5.70;;;;;;;19.50;74.44;98951.76;225090;1281;138285;-74
2023/10/03 08:37:40;;;;;;;9.40;5.20;;;;;;;19.67;73.51;98947.95;225122;1268;138726;-76
2023/10/03 08:42:52;;;;;;;10.70;5.60;;;;;;;19.83;72.77;98948.52;225133;1281;138422;-75
2023/10/03 08:48:05;;;;;;;9.30;5.60;;;;;;;19.98;72.43;98948.92;225131;1271;138621;-75
2023/10/03 08:53:48;;;;;;;8.80;5.50;;;;;;;20.15;72.31;98946.83;224960;1276;138413;-75
2023/10/03 08:59:30;;;;;;;;;;;;;;;;;;;;;
2023/10/03 09:06:02;;;;;;;8.80;5.80;;;;;;;20.48;70.72;98935.73;224691;1285;138644;-76
2023/10/03 09:11:21;;;;;;;10.70;6.70;;;;;;;20.64;70.58;98930.35;224554;1268;140551;-75
2023/10/03 09:16:41;;;;;;;12.30;6.20;;;;;;;20.80;70.10;98925.30;224758;1274;22595;-76
2023/10/03 09:22:16;;;;;;;;;;;;;;;;;;;;;
2023/10/03 09:27:44;;;;;;;11.80;6.30;;;;;;;21.06;68.51;98924.31;224912;1274;137631;-79
2023/10/03 09:32:58;;;;;;;10.30;6.10;;;;;;;21.20;68.69;98919.58;225327;1281;137889;-78
2023/10/03 09:39:06;;;;;;;;;;;;;;;;;;;;;
2023/10/03 09:44:37;;;;;;;10.60;6.30;;;;;;;21.48;67.97;98917.33;224816;1279;137952;-80
2023/10/03 09:51:02;;;;;;;10.20;6.40;;;;;;;21.64;67.37;98908.59;224858;1270;137207;-80
2023/10/03 09:56:55;;;;;;;10.70;6.60;;;;;;;21.82;67.38;98899.85;224726;1264;138017;-79
2023/10/03 10:02:04;;;;;;;11.40;6.80;;;;;;;22.03;67.55;98888.24;224694;1279;137887;-79
2023/10/03 10:08:08;;;;;;;;;;;;;;;;;;;;;
2023/10/03 10:13:48;;;;;;;;;;;;;;;;;;;;;
2023/10/03 10:26:06;;;;;;;;;;;;;;;;;;;;;
2023/10/03 10:32:08;;;;;;;13.10;7.60;;;;;;;22.92;65.71;98857.91;225232;1281;138054;-80
2023/10/03 10:37:14;;;;;;;9.60;6.90;;;;;;;23.09;65.45;98851.90;225005;1278;137889;-79
2023/10/03 10:42:24;;;;;;;10.70;7.70;;;;;;;23.23;64.55;98851.17;225025;1272;137755;-79
2023/10/03 10:47:28;;;;;;;12.80;7.60;;;;;;;23.33;64.41;98842.20;225141;1281;137930;-79
2023/10/03 10:52:49;;;;;;;12.30;7.60;;;;;;;23.43;64.44;98831.05;224936;1278;137874;-78
2023/10/03 10:58:12;;;;;;;12.70;7.50;;;;;;;23.60;64.24;98817.96;224838;1281;25434;-79
2023/10/03 11:03:21;;;;;;;11.90;8.30;;;;;;;23.77;64.44;98812.00;224966;1281;137592;-78
2023/10/03 11:08:25;;;;;;;12.60;8.20;;;;;;;23.98;64.60;98804.23;224855;1262;137852;-78
2023/10/03 11:13:44;;;;;;;11.10;8.10;;;;;;;24.14;63.43;98800.20;224974;1275;138023;-78
2023/10/03 11:19:02;;;;;;;13.60;9.30;;;;;;;24.27;63.14;98800.27;225220;1278;137906;-78
2023/10/03 11:24:28;;;;;;;12.70;9.10;;;;;;;24.41;61.27;98796.86;225339;1279;137902;-78
2023/10/03 11:29:46;;;;;;;13.50;9.10;;;;;;;24.58;60.07;98789.97;225233;1269;138178;-78
2023/10/03 11:34:51;;;;;;;13.60;8.50;;;;;;;24.69;59.40;98788.91;224999;1279;138275;-78
2023/10/03 11:40:11;;;;;;;15.00;9.80;;;;;;;24.76;57.48;98783.01;225258;1281;22543;-78
2023/10/03 11:45:18;;;;;;;16.00;10.00;;;;;;;24.81;57.72;98774.35;225254;1273;137599;-79
2023/10/03 11:50:21;;;;;;;14.10;9.10;;;;;;;24.91;58.28;98768.84;225379;1279;138100;-78
2023/10/03 11:55:56;;;;;;;18.30;9.50;;;;;;;25.05;58.05;98762.48;225146;1281;137969;-79
2023/10/03 12:01:00;;;;;;;17.80;8.90;;;;;;;25.20;55.97;98755.65;225272;1273;137887;-78
2023/10/03 12:06:41;;;;;;;;;;;;;;;;;;;;;
2023/10/03 12:11:45;;;;;;;13.60;9.40;;;;;;;25.33;56.10;98745.10;225131;1280;138123;-78
2023/10/03 12:16:51;;;;;;;14.00;9.30;;;;;;;25.39;55.97;98731.72;225092;1280;137880;-78
2023/10/03 12:21:55;;;;;;;14.90;9.00;;;;;;;25.47;56.25;98731.88;225816;1274;22538;-78
2023/10/03 12:27:05;;;;;;;14.70;9.30;;;;;;;25.55;56.10;98724.25;225113;1281;137627;-78
2023/10/03 12:32:08;;;;;;;12.30;8.30;;;;;;;25.55;56.33;98727.92;225402;1279;137664;-78
2023/10/03 12:37:19;;;;;;;14.90;8.80;;;;;;;25.54;56.00;98715.92;225149;1281;137947;-78
2023/10/03 12:42:34;;;;;;;;;;;;;;;;;;;;;
2023/10/03 12:47:59;;;;;;;11.10;7.70;;;;;;;25.50;56.09;98714.99;225287;1272;138401;-79
2023/10/03 12:53:03;;;;;;;11.30;8.50;;;;;;;25.37;55.60;98697.83;225401;1281;137843;-78
2023/10/03 12:58:05;;;;;;;11.10;8.00;;;;;;;25.38;56.29;98692.90;225434;1280;22538;-77
2023/10/03 13:03:08;;;;;;;13.10;8.00;;;;;;;25.40;55.90;98678.96;225180;1267;137589;-76
2023/10/03 13:08:19;;;;;;;13.50;8.40;;;;;;;25.23;55.43;98675.30;225020;1281;137803;-76
2023/10/03 13:13:22;;;;;;;13.50;8.40;;;;;;;24.95;55.61;98677.71;224920;1269;137888;-79
2023/10/03 13:18:38;;;;;;;11.40;7.70;;;;;;;24.83;56.11;98682.06;225186;1281;137981;-79
2023/10/03 13:23:42;;;;;;;10.80;7.60;;;;;;;24.83;56.52;98680.61;225335;1277;137860;-79
2023/10/03 13:28:45;;;;;;;11.30;7.50;;;;;;;24.87;56.73;98672.89;225021;1267;138247;-81
2023/10/03 13:33:50;;;;;;;11.80;8.20;;;;;;;24.89;56.36;98677.76;225180;1280;22554;-81
2023/10/03 13:38:54;;;;;;;11.60;7.20;;;;;;;24.77;56.45;98694.86;225062;1281;150548;-79
2023/10/03 13:44:15;;;;;;;14.10;8.30;;;;;;;24.57;56.22;98694.05;225020;1277;137807;-81
2023/10/03 13:49:19;;;;;;;12.10;7.40;;;;;;;24.37;55.89;98688.58;225101;1280;138091;-78
2023/10/03 13:54:39;;;;;;;9.60;6.90;;;;;;;24.19;56.27;98685.58;225291;1276;137932;-82
2023/10/03 13:59:43;;;;;;;;;;;;;;;24.03;56.82;98670.00;225130;1274;137730;-74
2023/10/03 14:04:45;;;;;;;11.30;7.40;;;;;;;23.85;57.15;98667.39;224739;1279;124202;-72
2023/10/03 14:09:53;;;;;;;9.90;6.30;;;;;;;23.68;57.32;98657.86;224832;1279;22939;-74
2023/10/03 14:14:56;;;;;;;8.00;6.30;;;;;;;23.53;57.71;98641.98;224989;1273;137656;-74
2023/10/03 14:20:01;;;;;;;11.20;6.60;;;;;;;23.43;58.03;98632.77;225127;1277;137913;-74
2023/10/03 14:25:11;;;;;;;10.20;6.20;;;;;;;23.35;58.37;98629.89;225007;1281;138150;-74
2023/10/03 14:30:15;;;;;;;9.00;6.50;;;;;;;23.40;58.66;98632.52;225361;1279;137880;-75
2023/10/03 14:35:23;;;;;;;10.50;6.60;;;;;;;23.46;58.57;98635.98;225682;1272;138658;-73
2023/10/03 14:40:25;;;;;;;8.90;6.20;;;;;;;23.49;58.90;98630.92;225633;1279;22547;-74
2023/10/03 14:45:30;;;;;;;9.10;5.80;;;;;;;23.55;58.82;98628.40;225732;1281;22548;-74
2023/10/03 14:50:59;;;;;;;8.90;5.80;;;;;;;23.59;58.63;98620.83;225475;1281;136858;-74
2023/10/03 14:56:34;;;;;;;8.70;5.50;;;;;;;23.61;58.75;98614.27;225546;1281;137731;-74
2023/10/03 15:01:36;;;;;;;8.70;5.90;;;;;;;23.63;58.60;98615.67;225626;1280;137798;-74
2023/10/03 15:06:39;;;;;;;10.20;5.90;;;;;;;23.64;58.78;98608.12;225453;1281;137757;-74
2023/10/03 15:11:45;;;;;;;9.60;6.50;;;;;;;23.62;58.68;98611.04;225458;1280;137880;-74
2023/10/03 15:17:00;;;;;;;8.40;5.80;;;;;;;23.56;58.61;98612.86;225450;1281;138154;-74
2023/10/03 15:22:05;;;;;;;10.90;6.20;;;;;;;23.50;58.66;98614.20;225787;1278;22609;-75
2023/10/03 15:27:11;;;;;;;9.30;5.50;;;;;;;23.42;58.81;98613.15;225483;1281;137777;-74
2023/10/03 15:32:25;;;;;;;9.80;5.70;;;;;;;23.31;58.98;98615.40;225474;1278;137961;-74
2023/10/03 15:37:28;;;;;;;9.40;5.50;;;;;;;23.21;58.82;98614.35;225514;1281;137818;-73
2023/10/03 15:42:31;;;;;;;10.50;6.50;;;;;;;23.05;59.14;98611.31;225445;1281;137723;-74
2023/10/03 15:47:33;;;;;;;8.10;5.70;;;;;;;22.85;59.52;98612.75;225728;1277;137896;-74
2023/10/03 15:52:36;;;;;;;8.70;5.80;;;;;;;22.60;59.70;98603.86;225515;1279;138040;-74
2023/10/03 15:58:01;;;;;;;10.70;5.40;;;;;;;22.38;60.13;98600.30;225607;1280;22572;-73
2023/10/03 16:03:28;;;;;;;9.10;5.20;;;;;;;22.20;60.46;98599.65;225430;1281;137781;-73
2023/10/03 16:08:34;;;;;;;9.60;5.70;;;;;;;22.07;60.63;98597.21;225547;1275;138231;-73
2023/10/03 16:13:40;;;;;;;7.70;5.20;;;;;;;21.91;60.99;98599.67;225523;1281;137898;-73
2023/10/03 16:18:58;;;;;;;9.60;5.80;;;;;;;21.68;61.35;98601.55;225550;1269;137672;-73
2023/10/03 16:24:00;;;;;;;7.80;5.00;;;;;;;21.44;61.83;98602.48;225628;1280;137714;-72
2023/10/03 16:29:40;;;;;;;10.40;5.60;;;;;;;21.17;62.25;98606.31;225469;1281;137764;-73
2023/10/03 16:34:45;;;;;;;;;;;;;;;20.95;63.02;98603.48;225664;1277;137875;-73
2023/10/03 16:39:49;;;;;;;9.30;5.30;;;;;;;20.85;63.44;98600.31;225791;1280;22543;-74
2023/10/03 16:45:02;;;;;;;9.90;4.60;;;;;;;20.75;63.77;98603.79;225541;1281;137443;-73
2023/10/03 16:50:19;;;;;;;8.70;5.40;;;;;;;20.67;63.99;98603.34;225617;1281;137715;-73
2023/10/03 16:55:22;;;;;;;7.10;5.10;;;;;;;20.60;64.12;98599.66;225593;1279;138130;-73
2023/10/03 17:00:27;;;;;;;7.20;4.50;;;;;;;20.51;64.35;98600.65;225512;1279;138420;-73
2023/10/03 17:05:40;;;;;;;;;;;;;;;;;;;;;
2023/10/03 17:10:42;;;;;;;7.50;5.30;;;;;;;20.30;65.03;98594.02;225552;1280;138347;-73
2023/10/03 17:15:45;;;;;;;12.20;6.10;;;;;;;20.24;65.21;98592.98;225712;1279;22934;-73
2023/10/03 17:20:48;;;;;;;9.80;5.90;;;;;;;20.22;65.46;98588.77;225628;1279;137663;-74
2023/10/03 17:25:50;;;;;;;12.10;6.70;;;;;;;20.14;65.60;98584.70;225409;1280;138530;-74
2023/10/03 17:31:17;;;;;;;7.30;5.20;;;;;;;20.00;65.75;98588.16;225691;1278;138544;-73
2023/10/03 17:36:23;;;;;;;10.70;5.80;;;;;;;19.87;66.17;98572.77;225688;1278;138418;-74
2023/10/03 17:41:28;;;;;;;8.20;5.40;;;;;;;19.75;66.54;98579.38;225534;1281;138579;-73
2023/10/03 17:46:34;;;;;;;7.50;5.40;;;;;;;19.64;66.92;98582.24;225653;1281;138398;-74
2023/10/03 17:51:36;;;;;;;10.30;5.60;;;;;;;19.53;67.02;98595.20;225639;1281;22544;-74
2023/10/03 17:57:10;;;;;;;7.70;5.50;;;;;;;19.40;67.23;98596.73;225553;1281;138452;-74
2023/10/03 18:02:22;;;;;;;9.70;6.30;;;;;;;19.24;67.62;98599.27;225673;1273;138340;-74
2023/10/03 18:07:24;;;;;;;9.60;5.70;;;;;;;19.10;67.81;98610.91;225715;1275;138591;-74
2023/10/03 18:12:26;;;;;;;11.60;5.50;;;;;;;19.01;68.30;98611.48;225532;1279;138446;-74
2023/10/03 18:17:34;;;;;;;7.50;4.70;;;;;;;19.02;68.60;98606.08;225469;1281;138575;-74
2023/10/03 18:22:40;;;;;;;7.90;5.00;;;;;;;19.03;68.89;98599.30;225691;1274;138451;-73
2023/10/03 18:27:45;;;;;;;9.50;5.40;;;;;;;19.06;68.82;98589.54;225717;1278;22560;-73
2023/10/03 18:32:48;;;;;;;9.80;5.60;;;;;;;19.01;68.87;98585.04;225509;1281;138065;-73
2023/10/03 18:37:50;;;;;;;9.60;5.40;;;;;;;18.95;69.07;98582.27;225527;1281;138375;-74
2023/10/03 18:42:55;;;;;;;7.80;4.90;;;;;;;18.95;69.40;98584.41;225507;1277;138412;-73
2023/10/03 18:47:57;;;;;;;8.50;4.60;;;;;;;19.01;69.38;98583.05;225689;1280;138394;-73
2023/10/03 18:53:00;;;;;;;7.30;4.80;;;;;;;19.01;69.28;98587.22;225569;1280;138457;-73
2023/10/03 18:58:02;;;;;;;8.90;5.10;;;;;;;19.00;69.37;98582.13;225643;1279;22556;-74
2023/10/03 19:03:10;;;;;;;7.10;4.70;;;;;;;18.95;69.32;98588.70;225649;1281;138258;-75
2023/10/03 19:08:26;;;;;;;9.90;5.90;;;;;;;18.86;69.44;98581.38;225548;1281;138405;-73
2023/10/03 19:13:31;;;;;;;10.10;5.00;;;;;;;18.75;69.66;98585.09;225533;1280;138370;-74
2023/10/03 19:18:33;;;;;;;10.20;5.10;;;;;;;18.63;69.76;98581.27;225489;1277;138809;-74
2023/10/03 19:23:40;;;;;;;11.90;5.10;;;;;;;18.52;70.05;98576.96;225557;1281;138689;-74
2023/10/03 19:28:42;;;;;;;8.60;5.10;;;;;;;18.45;70.33;98576.46;225658;1275;138582;-74
2023/10/03 19:33:44;;;;;;;7.80;4.70;;;;;;;18.44;70.63;98574.61;225775;1279;22560;-74
2023/10/03 19:38:50;;;;;;;8.40;4.90;;;;;;;18.42;70.79;98568.39;225538;1280;138378;-74
2023/10/03 19:43:54;;;;;;;8.00;4.90;;;;;;;18.44;71.08;98573.49;225660;1274;138202;-74
2023/10/03 19:49:02;;;;;;;8.20;5.40;;;;;;;18.48;71.13;98576.30;225492;1281;138541;-74
2023/10/03 19:54:08;;;;;;;9.40;4.60;;;;;;;18.46;71.00;98574.34;225545;1281;138442;-74
2023/10/03 19:59:13;;;;;;;9.30;4.90;;;;;;;18.41;70.94;98571.95;225547;1265;138408;-73
2023/10/03 20:04:16;;;;;;;9.20;4.70;;;;;;;18.37;71.09;98571.52;225732;1276;22538;-74
2023/10/03 20:09:39;;;;;;;9.00;5.20;;;;;;;18.32;71.16;98568.35;225757;1281;24219;-73
2023/10/03 20:14:53;;;;;;;6.40;4.20;;;;;;;18.28;71.18;98576.08;225643;1281;138318;-73
2023/10/03 20:19:58;;;;;;;7.90;5.00;;;;;;;18.18;71.23;98576.72;225596;1279;138538;-73
2023/10/03 20:25:01;;;;;;;10.70;5.30;;;;;;;18.07;71.31;98588.88;225505;1278;138436;-73
2023/10/03 20:30:14;;;;;;;8.50;5.20;;;;;;;17.94;71.56;98588.54;225469;1280;138869;-73
2023/10/03 20:35:17;;;;;;;11.00;5.40;;;;;;;17.83;71.90;98587.11;225509;1278;138488;-73
2023/10/03 20:40:21;;;;;;;10.80;6.00;;;;;;;17.75;72.15;98584.73;225652;1276;22546;-74
2023/10/03 20:45:24;;;;;;;8.30;5.00;;;;;;;17.70;72.51;98591.05;225579;1279;138617;-74
2023/10/03 20:50:26;;;;;;;10.50;5.40;;;;;;;17.70;72.64;98605.14;225759;1280;138255;-74
2023/10/03 20:56:25;;;;;;;9.70;5.30;;;;;;;17.79;72.92;98607.36;225513;1281;138580;-74
2023/10/03 21:01:48;;;;;;;10.10;5.20;;;;;;;17.95;72.98;98614.23;225585;1281;138415;-74
2023/10/03 21:06:50;;;;;;;9.40;5.60;;;;;;;18.11;72.90;98612.75;225650;1278;138575;-74
2023/10/03 21:11:58;;;;;;;5.80;4.40;;;;;;;18.25;72.65;98637.98;225653;1281;138415;-74
2023/10/03 21:17:03;;;;;;;10.80;4.40;;;;;;;18.37;72.63;98733.27;225397;1281;138418;-74
2023/10/03 21:22:06;;;;;;;6.10;3.80;;;;;;;18.61;72.43;98719.31;225709;1278;23451;-74
2023/10/03 21:27:09;;;;;;;6.60;4.00;;;;;;;18.86;72.03;98752.73;225581;1279;138307;-74
2023/10/03 21:32:23;;;;;;;7.60;4.10;;;;;;;19.05;71.61;98751.25;225659;1278;138639;-74
2023/10/03 21:37:34;;;;;;;6.50;3.80;;;;;;;19.20;71.27;98739.67;225537;1281;138540;-74
2023/10/03 21:42:40;;;;;;;5.40;3.80;;;;;;;19.27;71.01;98735.89;225472;1277;138446;-74
2023/10/03 21:47:43;;;;;;;8.30;4.20;;;;;;;19.30;70.94;98746.91;225558;1279;138400;-74
2023/10/03 21:52:54;;;;;;;9.80;4.10;;;;;;;19.34;70.84;98767.59;225724;1278;138372;-74
2023/10/03 21:58:00;;;;;;;5.20;2.20;;;;;;;19.38;71.00;98832.34;225706;1279;22567;-73
2023/10/03 22:03:03;;;;;;;4.50;1.80;;;;;;;19.23;70.82;98855.03;225659;1278;138067;-73
2023/10/03 22:08:10;;;;;;;2.90;1.50;;;;;;;18.89;70.96;98887.23;225527;1278;138249;-73
2023/10/03 22:13:18;;;;;;;5.50;1.50;;;;;;;18.49;72.11;98879.47;225623;1279;138554;-73
2023/10/03 22:18:37;;;;;;;2.80;1.50;;;;;;;18.09;73.56;98906.81;225608;1281;138587;-73
2023/10/03 22:23:48;;;;;;;2.90;1.90;;;;;;;17.46;75.84;98939.20;225546;1281;138420;-74
2023/10/03 22:28:53;;;;;;;2.90;1.70;;;;;;;16.88;77.59;98950.45;225630;1281;138369;-74
2023/10/03 22:34:27;;;;;;;;;;;;;;;;;;;;;
2023/10/03 22:39:37;;;;;;;5.70;2.00;;;;;;;15.97;79.73;98970.13;225614;1278;137887;-75
2023/10/03 22:44:40;;;;;;;3.40;1.80;;;;;;;15.66;80.34;98961.69;225529;1281;138408;-75
2023/10/03 22:50:37;;;;;;;;;;;;;;;;;;;;;
2023/10/03 22:56:03;;;;;;;3.70;2.00;;;;;;;15.28;81.64;98985.70;225615;1280;138543;-75
2023/10/03 23:01:09;;;;;;;3.70;2.60;;;;;;;15.18;82.16;99009.95;225506;1281;138503;-75
2023/10/03 23:06:17;;;;;;;6.20;3.00;;;;;;;15.12;82.92;99004.95;225528;1279;138395;-76
2023/10/03 23:12:12;;;;;;;5.50;2.90;;;;;;;15.07;82.96;98983.80;225449;1281;138474;-76
2023/10/03 23:17:57;;;;;;;4.60;2.70;;;;;;;15.03;83.27;98963.30;225615;1281;138427;-75
2023/10/03 23:23:30;;;;;;;;;;;;;;;;;;;;;
2023/10/03 23:28:45;;;;;;;4.20;2.70;;;;;;;14.90;83.64;98967.90;225608;1281;138410;-75
2023/10/03 23:34:21;;;;;;;7.90;2.80;;;;;;;14.84;83.75;98995.02;225788;1278;22543;-75
2023/10/03 23:40:23;;;;;;;;;;;;;;;;;;;;;
2023/10/03 23:45:28;;;;;;;5.60;2.90;;;;;;;14.70;84.18;99026.65;225587;1281;138337;-76
2023/10/03 23:50:44;;;;;;;5.90;3.40;;;;;;;14.65;84.43;99037.72;225453;1281;138401;-75
2023/10/03 23:56:50;;;;;;;5.90;3.20;;;;;;;14.59;84.78;99051.02;225579;1281;138417;-75
